createdAt,value
2019-04-19T00:01:49.180Z,34.53
2019-04-19T00:04:16.194Z,32.57
2019-04-19T00:06:45.055Z,34.00
2019-04-19T00:09:28.394Z,40.60
2019-04-19T00:11:55.952Z,27.03
2019-04-19T00:14:16.999Z,33.37
2019-04-19T00:16:46.984Z,31.13
2019-04-19T00:19:35.149Z,35.57
2019-04-19T00:22:09.173Z,30.17
2019-04-19T00:24:16.729Z,30.93
2019-04-19T00:26:46.709Z,33.17
2019-04-19T00:29:21.970Z,31.60
2019-04-19T00:32:06.476Z,23.50
2019-04-19T00:34:16.618Z,26.40
2019-04-19T00:36:46.645Z,32.10
2019-04-19T00:39:38.466Z,24.77
2019-04-19T00:42:24.946Z,36.43
2019-04-19T00:45:01.539Z,28.27
2019-04-19T00:47:28.701Z,26.00
2019-04-19T00:49:52.662Z,32.87
2019-04-19T00:52:33.594Z,32.43
2019-04-19T00:54:52.080Z,30.23
2019-04-19T00:57:22.490Z,29.90
2019-04-19T00:59:45.456Z,28.73
2019-04-19T01:02:15.486Z,33.53
2019-04-19T01:04:41.566Z,25.00
2019-04-19T01:07:18.880Z,42.23
2019-04-19T01:09:56.299Z,29.07
2019-04-19T01:12:23.589Z,32.20
2019-04-19T01:15:00.971Z,24.70
2019-04-19T01:17:31.266Z,39.10
2019-04-19T01:19:52.991Z,59.37
2019-04-19T01:22:22.063Z,32.87
2019-04-19T01:24:49.571Z,30.03
2019-04-19T01:27:21.176Z,30.77
2019-04-19T01:29:51.600Z,27.10
2019-04-19T01:32:19.786Z,30.40
2019-04-19T01:34:54.378Z,43.50
2019-04-19T01:37:23.283Z,25.80
2019-04-19T01:40:05.818Z,28.10
2019-04-19T01:42:38.893Z,25.33
2019-04-19T01:45:06.024Z,41.07
2019-04-19T01:47:51.465Z,31.20
2019-04-19T01:50:18.381Z,44.17
2019-04-19T01:52:57.139Z,30.23
2019-04-19T01:55:16.812Z,28.67
2019-04-19T01:57:38.806Z,26.33
2019-04-19T02:00:12.657Z,23.47
2019-04-19T02:02:46.883Z,34.33
2019-04-19T02:05:15.048Z,26.97
2019-04-19T02:07:42.428Z,25.33
2019-04-19T02:10:57.767Z,29.60
2019-04-19T02:13:26.946Z,36.40
2019-04-19T02:15:51.330Z,26.17
2019-04-19T02:18:23.292Z,32.03
2019-04-19T02:20:49.986Z,36.60
2019-04-19T02:23:20.124Z,27.63
2019-04-19T02:25:51.650Z,33.67
2019-04-19T02:28:24.502Z,29.60
2019-04-19T02:31:08.976Z,32.00
2019-04-19T02:33:47.949Z,31.57
2019-04-19T02:36:15.556Z,26.20
2019-04-19T02:38:53.766Z,27.90
2019-04-19T02:48:54.182Z,39.50
2019-04-19T02:53:47.080Z,29.63
2019-04-19T02:59:21.140Z,34.70
2019-04-19T03:02:04.505Z,25.50
2019-04-19T03:06:36.745Z,30.00
2019-04-19T03:08:59.292Z,27.70
2019-04-19T03:11:41.281Z,27.33
2019-04-19T03:14:12.825Z,28.17
2019-04-19T03:16:48.007Z,32.53
2019-04-19T03:19:09.567Z,31.53
2019-04-19T03:21:43.295Z,29.40
2019-04-19T03:24:14.436Z,32.60
2019-04-19T03:26:41.540Z,38.77
2019-04-19T03:29:08.803Z,33.60
2019-04-19T03:31:59.072Z,37.77
2019-04-19T03:34:36.772Z,63.70
2019-04-19T03:36:47.603Z,35.23
2019-04-19T03:39:23.054Z,53.13
2019-04-19T03:44:32.196Z,33.27
2019-04-19T03:47:04.368Z,30.80
2019-04-19T03:52:08.588Z,35.23
2019-04-19T03:54:29.870Z,32.20
2019-04-19T03:57:00.657Z,38.03
2019-04-19T03:59:16.211Z,38.73
2019-04-19T04:01:49.895Z,31.60
2019-04-19T04:04:20.797Z,29.73
2019-04-19T04:06:46.214Z,37.50
2019-04-19T04:09:25.043Z,40.57
2019-04-19T04:12:03.283Z,27.73
2019-04-19T04:14:51.905Z,42.43
2019-04-19T04:17:05.830Z,32.87
2019-04-19T04:19:35.618Z,30.20
2019-04-19T04:22:07.700Z,29.27
2019-04-19T04:24:39.797Z,34.00
2019-04-19T04:27:14.134Z,27.00
2019-04-19T04:29:41.775Z,31.43
2019-04-19T04:32:15.544Z,31.63
2019-04-19T04:34:47.824Z,33.90
2019-04-19T04:37:24.857Z,26.50
2019-04-19T04:39:36.903Z,27.60
2019-04-19T04:42:15.683Z,28.43
2019-04-19T04:45:01.847Z,30.50
2019-04-19T04:47:28.671Z,38.83
2019-04-19T04:50:17.014Z,25.87
2019-04-19T04:52:31.875Z,34.90
2019-04-19T04:54:58.957Z,28.40
2019-04-19T04:57:41.682Z,34.53
2019-04-19T05:00:03.326Z,46.83
2019-04-19T05:02:48.651Z,36.40
2019-04-19T05:05:19.790Z,36.73
2019-04-19T05:07:58.357Z,31.40
2019-04-19T05:10:21.649Z,29.37
2019-04-19T05:13:12.224Z,30.13
2019-04-19T05:15:26.270Z,27.33
2019-04-19T05:18:18.705Z,41.80
2019-04-19T05:20:22.675Z,37.37
2019-04-19T05:22:55.283Z,29.57
2019-04-19T05:25:30.812Z,31.77
2019-04-19T05:27:55.536Z,31.87
2019-04-19T05:30:09.109Z,30.03
2019-04-19T05:32:43.513Z,30.87
2019-04-19T05:35:24.182Z,26.90
2019-04-19T05:38:03.417Z,28.67
2019-04-19T05:40:47.486Z,28.23
2019-04-19T05:43:50.015Z,28.53
2019-04-19T05:46:05.141Z,27.83
2019-04-19T05:48:27.347Z,27.33
2019-04-19T05:51:12.956Z,34.67
2019-04-19T05:53:24.544Z,30.30
2019-04-19T05:55:41.120Z,31.53
2019-04-19T05:58:20.351Z,26.00
2019-04-19T06:00:55.309Z,39.90
2019-04-19T06:03:21.651Z,32.30
2019-04-19T06:06:10.857Z,33.73
2019-04-19T06:08:20.904Z,29.73
2019-04-19T06:10:52.272Z,25.07
2019-04-19T06:13:17.086Z,29.50
2019-04-19T06:16:05.623Z,28.00
2019-04-19T06:18:38.105Z,33.33
2019-04-19T06:21:17.267Z,28.87
2019-04-19T06:23:48.379Z,29.47
2019-04-19T06:26:46.482Z,29.03
2019-04-19T06:28:51.916Z,24.80
2019-04-19T06:31:19.527Z,25.73
2019-04-19T06:33:42.945Z,35.77
2019-04-19T06:35:59.512Z,27.40
2019-04-19T06:38:24.979Z,27.03
2019-04-19T06:41:01.518Z,29.23
2019-04-19T06:43:35.977Z,41.40
2019-04-19T06:46:09.348Z,31.23
2019-04-19T06:48:29.577Z,27.03
2019-04-19T06:50:59.094Z,32.33
2019-04-19T06:53:31.052Z,36.87
2019-04-19T06:56:07.987Z,33.63
2019-04-19T06:58:32.769Z,36.43
2019-04-19T07:01:10.730Z,26.90
2019-04-19T07:03:25.788Z,36.10
2019-04-19T07:06:09.065Z,30.53
2019-04-19T07:11:16.395Z,33.03
2019-04-19T07:13:38.515Z,30.47
2019-04-19T07:16:19.312Z,36.43
2019-04-19T07:18:39.292Z,30.03
2019-04-19T07:21:16.305Z,30.70
2019-04-19T07:23:49.789Z,26.80
2019-04-19T07:26:25.007Z,23.70
2019-04-19T07:28:33.263Z,30.80
2019-04-19T07:31:03.193Z,37.40
2019-04-19T07:33:39.981Z,32.37
2019-04-19T07:36:17.094Z,26.90
2019-04-19T07:38:53.790Z,28.00
2019-04-19T07:41:17.798Z,29.40
2019-04-19T07:44:01.284Z,29.93
2019-04-19T07:46:41.099Z,33.83
2019-04-19T07:48:55.349Z,28.30
2019-04-19T07:51:30.005Z,30.70
2019-04-19T07:53:55.272Z,30.63
2019-04-19T07:56:40.424Z,46.53
2019-04-19T07:59:24.736Z,31.37
2019-04-19T08:02:07.346Z,26.80
2019-04-19T08:04:37.829Z,26.33
2019-04-19T08:06:53.962Z,34.17
2019-04-19T08:14:22.677Z,27.97
2019-04-19T08:17:31.168Z,31.70
2019-04-19T08:29:13.295Z,25.57
2019-04-19T08:31:29.578Z,36.70
2019-04-19T08:34:02.670Z,39.30
2019-04-19T08:36:33.054Z,33.37
2019-04-19T08:39:19.045Z,30.53
2019-04-19T08:41:46.692Z,28.17
2019-04-19T08:44:18.020Z,25.53
2019-04-19T08:46:32.599Z,27.60
2019-04-19T08:49:05.659Z,43.97
2019-04-19T08:51:45.228Z,40.63
2019-04-19T08:54:36.959Z,29.70
2019-04-19T08:56:53.700Z,26.23
2019-04-19T08:59:38.693Z,25.50
2019-04-19T09:02:05.609Z,26.43
2019-04-19T09:04:34.773Z,26.50
2019-04-19T09:09:35.521Z,24.73
2019-04-19T09:12:06.565Z,36.10
2019-04-19T09:14:38.079Z,21.97
2019-04-19T09:17:14.225Z,23.13
2019-04-19T09:19:58.024Z,22.43
2019-04-19T09:22:04.404Z,27.20
2019-04-19T09:24:30.956Z,21.33
2019-04-19T09:27:01.325Z,30.30
2019-04-19T09:29:40.408Z,24.10
2019-04-19T09:31:56.031Z,27.47
2019-04-19T09:34:21.538Z,27.43
2019-04-19T09:37:01.431Z,24.17
2019-04-19T09:39:34.795Z,23.00
2019-04-19T09:41:57.434Z,55.40
2019-04-19T09:44:29.093Z,27.50
2019-04-19T09:46:50.814Z,23.50
2019-04-19T09:49:40.771Z,24.30
2019-04-19T09:52:03.278Z,24.03
2019-04-19T09:54:45.903Z,25.80
2019-04-19T09:57:07.052Z,23.83
2019-04-19T09:59:27.857Z,21.37
2019-04-19T10:01:57.378Z,30.10
2019-04-19T10:04:21.044Z,19.93
2019-04-19T10:06:49.526Z,21.10
2019-04-19T10:09:21.872Z,24.07
2019-04-19T10:11:48.657Z,21.70
2019-04-19T10:14:17.378Z,23.50
2019-04-19T10:16:48.452Z,32.10
2019-04-19T10:19:17.070Z,26.60
2019-04-19T10:21:49.931Z,22.07
2019-04-19T10:24:20.950Z,20.43
2019-04-19T10:26:53.012Z,31.23
2019-04-19T10:29:27.127Z,24.30
2019-04-19T10:31:57.162Z,24.17
2019-04-19T10:34:26.504Z,24.10
2019-04-19T10:36:57.025Z,20.97
2019-04-19T10:39:27.662Z,37.20
2019-04-19T10:41:56.537Z,21.53
2019-04-19T10:44:26.997Z,19.07
2019-04-19T10:46:56.627Z,24.23
2019-04-19T10:49:33.494Z,24.43
2019-04-19T10:51:56.865Z,23.30
2019-04-19T10:54:26.605Z,20.30
2019-04-19T10:57:12.912Z,25.03
2019-04-19T10:59:42.546Z,63.60
2019-04-19T11:02:11.218Z,28.27
2019-04-19T11:04:40.614Z,33.33
2019-04-19T11:07:09.589Z,20.60
2019-04-19T11:09:38.109Z,21.63
2019-04-19T11:12:07.993Z,22.30
2019-04-19T11:14:36.539Z,22.53
2019-04-19T11:17:07.445Z,31.43
2019-04-19T11:19:52.154Z,20.07
2019-04-19T11:22:07.705Z,26.47
2019-04-19T11:24:36.465Z,26.37
2019-04-19T11:27:05.292Z,21.70
2019-04-19T11:29:34.523Z,21.57
2019-04-19T11:32:10.456Z,20.50
2019-04-19T11:34:40.923Z,21.90
2019-04-19T11:37:13.194Z,20.77
2019-04-19T11:39:41.336Z,20.10
2019-04-19T11:42:10.218Z,20.27
2019-04-19T11:44:39.513Z,18.70
2019-04-19T11:47:08.974Z,19.90
2019-04-19T11:49:40.899Z,20.20
2019-04-19T11:52:11.222Z,29.23
2019-04-19T11:54:39.629Z,15.57
2019-04-19T11:57:10.859Z,20.95
2019-04-19T11:59:48.869Z,22.20
2019-04-19T12:02:20.795Z,19.92
2019-04-19T12:04:48.428Z,18.92
2019-04-19T12:07:16.923Z,15.55
2019-04-19T12:09:45.367Z,15.32
2019-04-19T12:12:14.971Z,21.17
2019-04-19T12:14:46.038Z,14.38
2019-04-19T12:17:15.248Z,24.63
2019-04-19T12:19:50.480Z,15.68
2019-04-19T12:22:14.922Z,20.20
2019-04-19T12:24:44.684Z,14.15
2019-04-19T12:27:13.856Z,15.88
2019-04-19T12:29:47.777Z,15.72
2019-04-19T12:32:12.636Z,17.80
2019-04-19T12:34:44.598Z,14.45
2019-04-19T12:37:11.648Z,14.60
2019-04-19T12:39:41.108Z,15.78
2019-04-19T12:42:11.399Z,19.27
2019-04-19T12:44:40.606Z,16.02
2019-04-19T12:47:11.036Z,16.50
2019-04-19T12:49:51.068Z,15.08
2019-04-19T12:52:10.184Z,14.07
2019-04-19T12:54:39.316Z,14.47
2019-04-19T12:57:07.915Z,16.23
2019-04-19T12:59:36.401Z,12.90
2019-04-19T13:02:06.504Z,14.15
2019-04-19T13:04:36.609Z,17.40
2019-04-19T13:07:06.814Z,15.05
2019-04-19T13:09:35.183Z,15.23
2019-04-19T13:12:05.191Z,17.40
2019-04-19T13:14:33.645Z,18.75
2019-04-19T13:17:02.224Z,15.10
2019-04-19T13:19:31.266Z,19.17
2019-04-19T13:22:00.593Z,17.73
2019-04-19T13:24:29.181Z,22.03
2019-04-19T13:26:59.081Z,16.27
2019-04-19T13:29:27.897Z,21.17
2019-04-19T13:31:56.735Z,19.43
2019-04-19T13:34:25.369Z,20.83
2019-04-19T13:37:13.823Z,18.73
2019-04-19T13:39:46.636Z,30.57
2019-04-19T13:42:17.132Z,40.23
2019-04-19T13:44:45.544Z,16.50
2019-04-19T13:47:14.004Z,20.07
2019-04-19T13:49:42.611Z,23.30
2019-04-19T13:52:12.643Z,27.60
2019-04-19T13:54:41.312Z,31.07
2019-04-19T13:57:11.056Z,20.10
2019-04-19T13:59:48.159Z,25.30
2019-04-19T14:02:10.578Z,28.70
2019-04-19T14:04:39.730Z,19.53
2019-04-19T14:07:09.375Z,18.47
2019-04-19T14:09:39.242Z,17.50
2019-04-19T14:12:09.262Z,25.00
2019-04-19T14:14:39.021Z,19.40
2019-04-19T14:17:07.674Z,21.87
2019-04-19T14:19:36.738Z,24.90
2019-04-19T14:22:06.877Z,19.90
2019-04-19T14:24:35.604Z,22.97
2019-04-19T14:27:05.785Z,20.63
2019-04-19T14:29:35.188Z,22.23
2019-04-19T14:32:05.238Z,21.13
2019-04-19T14:34:35.214Z,27.60
2019-04-19T14:37:04.542Z,19.20
2019-04-19T14:39:34.305Z,29.07
2019-04-19T14:42:03.498Z,32.23
2019-04-19T14:44:33.614Z,14.77
2019-04-19T14:47:03.155Z,19.90
2019-04-19T14:49:32.737Z,17.50
2019-04-19T14:52:01.467Z,16.20
2019-04-19T14:54:30.053Z,20.97
2019-04-19T14:56:58.887Z,17.50
2019-04-19T14:59:27.349Z,23.13
2019-04-19T15:02:13.141Z,21.70
2019-04-19T15:04:46.886Z,16.23
2019-04-19T15:07:16.594Z,21.80
2019-04-19T15:09:45.891Z,16.80
2019-04-19T15:12:14.456Z,15.83
2019-04-19T15:14:43.010Z,17.67
2019-04-19T15:17:11.798Z,22.13
2019-04-19T15:19:40.297Z,19.27
2019-04-19T15:22:08.766Z,17.07
2019-04-19T15:24:37.216Z,17.30
2019-04-19T15:27:05.684Z,26.10
2019-04-19T15:29:34.698Z,16.60
2019-04-19T15:32:04.145Z,17.60
2019-04-19T15:34:33.710Z,28.30
2019-04-19T15:37:04.038Z,22.63
2019-04-19T15:39:33.742Z,19.67
2019-04-19T15:42:02.511Z,23.53
2019-04-19T15:44:30.893Z,25.80
2019-04-19T15:47:00.143Z,24.10
2019-04-19T15:49:28.589Z,22.00
2019-04-19T15:51:57.452Z,25.13
2019-04-19T15:54:26.406Z,24.93
2019-04-19T15:56:54.845Z,17.83
2019-04-19T15:59:26.630Z,19.73
2019-04-19T16:01:55.972Z,18.43
2019-04-19T16:04:43.934Z,20.87
2019-04-19T16:07:32.196Z,17.20
2019-04-19T16:10:12.960Z,17.20
2019-04-19T16:12:44.013Z,20.40
2019-04-19T16:15:13.970Z,20.53
2019-04-19T16:17:43.734Z,17.77
2019-04-19T16:20:13.404Z,20.73
2019-04-19T16:22:42.426Z,22.83
2019-04-19T16:25:11.308Z,16.60
2019-04-19T16:27:42.012Z,20.90
2019-04-19T16:30:10.321Z,18.63
2019-04-19T16:32:39.095Z,18.73
2019-04-19T16:35:07.944Z,20.00
2019-04-19T16:37:37.180Z,22.30
2019-04-19T16:40:09.875Z,33.03
2019-04-19T16:42:38.997Z,25.10
2019-04-19T16:45:08.223Z,20.40
2019-04-19T16:47:37.505Z,17.73
2019-04-19T16:50:07.122Z,25.10
2019-04-19T16:52:36.458Z,22.80
2019-04-19T16:55:07.389Z,18.13
2019-04-19T16:57:36.482Z,19.10
2019-04-19T17:00:13.003Z,15.57
2019-04-19T17:02:42.908Z,16.27
2019-04-19T17:05:12.672Z,19.17
2019-04-19T17:07:41.665Z,34.03
2019-04-19T17:10:10.206Z,29.33
2019-04-19T17:12:39.652Z,17.27
2019-04-19T17:15:10.752Z,18.73
2019-04-19T17:17:50.932Z,17.50
2019-04-19T17:20:33.999Z,19.90
2019-04-19T17:23:02.791Z,26.13
2019-04-19T17:25:31.266Z,31.13
2019-04-19T17:28:00.954Z,21.10
2019-04-19T17:30:36.378Z,26.63
2019-04-19T17:33:06.173Z,37.67
2019-04-19T17:35:34.814Z,20.93
2019-04-19T17:38:03.299Z,16.60
2019-04-19T17:40:32.389Z,20.40
2019-04-19T17:43:01.373Z,67.23
2019-04-19T17:45:29.881Z,33.73
2019-04-19T17:47:58.554Z,22.97
2019-04-19T17:50:27.118Z,15.67
2019-04-19T17:52:56.688Z,19.47
2019-04-19T17:55:31.011Z,20.50
2019-04-19T17:57:56.942Z,26.63
2019-04-19T18:00:26.108Z,21.23
2019-04-19T18:02:55.254Z,24.20
2019-04-19T18:05:24.279Z,26.93
2019-04-19T18:07:53.925Z,19.60
2019-04-19T18:10:27.195Z,18.80
2019-04-19T18:12:53.170Z,19.63
2019-04-19T18:15:22.119Z,17.73
2019-04-19T18:17:55.558Z,17.15
2019-04-19T18:20:22.960Z,12.80
2019-04-19T18:23:00.742Z,16.73
2019-04-19T18:25:22.180Z,16.97
2019-04-19T18:27:53.825Z,19.97
2019-04-19T18:30:22.153Z,17.67
2019-04-19T18:32:55.032Z,16.37
2019-04-19T18:35:29.024Z,19.10
2019-04-19T18:37:53.604Z,20.70
2019-04-19T18:40:22.181Z,17.67
2019-04-19T18:43:06.409Z,18.10
2019-04-19T18:45:25.096Z,17.13
2019-04-19T18:47:51.191Z,19.13
2019-04-19T18:50:20.331Z,17.17
2019-04-19T18:52:53.646Z,27.60
2019-04-19T18:55:27.518Z,25.10
2019-04-19T18:57:49.978Z,16.43
2019-04-19T19:00:18.965Z,16.30
2019-04-19T19:02:53.871Z,16.23
2019-04-19T19:05:18.251Z,15.93
2019-04-19T19:07:49.335Z,15.93
2019-04-19T19:10:24.595Z,16.90
2019-04-19T19:12:49.610Z,19.00
2019-04-19T19:15:18.677Z,25.70
2019-04-19T19:17:50.811Z,25.77
2019-04-19T19:20:22.455Z,26.00
2019-04-19T19:23:05.527Z,16.50
2019-04-19T19:25:34.332Z,15.97
2019-04-19T19:27:50.414Z,16.77
2019-04-19T19:30:20.757Z,17.53
2019-04-19T19:32:53.960Z,14.90
2019-04-19T19:35:23.154Z,17.63
2019-04-19T19:37:50.844Z,20.87
2019-04-19T19:40:29.441Z,13.20
2019-04-19T19:43:18.125Z,17.53
2019-04-19T19:45:36.644Z,13.60
2019-04-19T19:48:26.106Z,14.30
2019-04-19T19:50:58.624Z,15.07
2019-04-19T19:53:35.454Z,14.47
2019-04-19T19:55:54.834Z,17.47
2019-04-19T19:58:19.829Z,13.30
2019-04-19T20:00:56.785Z,17.10
2019-04-19T20:03:13.581Z,28.20
2019-04-19T20:05:40.233Z,21.80
2019-04-19T20:08:07.871Z,15.23
2019-04-19T20:10:40.651Z,13.03
2019-04-19T20:13:11.230Z,16.70
2019-04-19T20:15:40.662Z,16.60
2019-04-19T20:18:08.407Z,16.73
2019-04-19T20:20:40.834Z,14.47
2019-04-19T20:23:12.256Z,15.97
2019-04-19T20:25:46.383Z,13.40
2019-04-19T20:28:16.307Z,15.53
2019-04-19T20:30:43.011Z,15.17
2019-04-19T20:33:12.594Z,12.87
2019-04-19T20:35:40.979Z,13.63
2019-04-19T20:38:12.656Z,11.93
2019-04-19T20:40:49.321Z,12.73
2019-04-19T20:43:30.591Z,14.90
2019-04-19T20:45:46.161Z,21.83
2019-04-19T20:48:16.197Z,34.27
2019-04-19T20:50:52.372Z,19.23
2019-04-19T20:53:21.923Z,18.03
2019-04-19T20:56:20.492Z,12.73
2019-04-19T20:58:27.975Z,16.80
2019-04-19T21:00:50.443Z,16.80
2019-04-19T21:03:26.207Z,15.03
2019-04-19T21:05:50.907Z,15.00
2019-04-19T21:08:25.255Z,15.17
2019-04-19T21:10:59.564Z,19.10
2019-04-19T21:13:25.262Z,16.03
2019-04-19T21:15:54.383Z,16.73
2019-04-19T21:18:25.818Z,18.80
2019-04-19T21:20:55.791Z,20.20
2019-04-19T21:23:27.463Z,17.90
2019-04-19T21:25:57.822Z,18.20
2019-04-19T21:28:35.550Z,16.03
2019-04-19T21:30:59.919Z,16.83
2019-04-19T21:33:27.038Z,14.17
2019-04-19T21:36:00.845Z,15.90
2019-04-19T21:38:27.205Z,13.50
2019-04-19T21:40:56.039Z,15.80
2019-04-19T21:43:28.456Z,19.90
2019-04-19T21:45:55.118Z,14.43
2019-04-19T21:48:26.981Z,15.70
2019-04-19T21:50:55.349Z,15.37
2019-04-19T21:53:25.848Z,16.47
2019-04-19T21:56:02.129Z,14.70
2019-04-19T21:58:25.079Z,15.17
2019-04-19T22:01:02.498Z,23.27
2019-04-19T22:03:30.594Z,13.07
2019-04-19T22:06:03.991Z,12.90
2019-04-19T22:08:33.319Z,14.63
2019-04-19T22:11:00.490Z,16.17
2019-04-19T22:13:33.303Z,16.00
2019-04-19T22:16:01.931Z,14.60
2019-04-19T22:18:32.333Z,13.37
2019-04-19T22:21:03.721Z,15.10
2019-04-19T22:23:30.977Z,13.90
2019-04-19T22:26:13.045Z,20.90
2019-04-19T22:28:30.027Z,14.60
2019-04-19T22:31:00.253Z,18.57
2019-04-19T22:33:28.785Z,13.80
2019-04-19T22:36:00.702Z,17.80
2019-04-19T22:38:27.680Z,15.00
2019-04-19T22:40:59.028Z,15.53
2019-04-19T22:43:26.859Z,16.40
2019-04-19T22:46:01.809Z,15.90
2019-04-19T22:48:26.672Z,20.00
2019-04-19T22:50:58.273Z,13.17
2019-04-19T22:53:32.131Z,14.87
2019-04-19T22:56:08.114Z,17.00
2019-04-19T22:58:29.961Z,17.00
2019-04-19T23:00:59.021Z,13.87
2019-04-19T23:03:33.632Z,18.70
2019-04-19T23:05:59.569Z,16.53
2019-04-19T23:08:33.206Z,15.50
2019-04-19T23:11:02.336Z,18.00
2019-04-19T23:13:29.702Z,14.40
2019-04-19T23:16:04.010Z,13.03
2019-04-19T23:18:30.390Z,15.60
2019-04-19T23:21:05.527Z,15.30
2019-04-19T23:23:31.678Z,15.40
2019-04-19T23:26:13.641Z,15.17
2019-04-19T23:28:34.774Z,14.50
2019-04-19T23:31:08.235Z,18.23
2019-04-19T23:33:30.292Z,18.20
2019-04-19T23:35:59.598Z,17.80
2019-04-19T23:38:30.834Z,19.03
2019-04-19T23:40:59.290Z,16.80
2019-04-19T23:43:34.242Z,13.87
2019-04-19T23:45:58.129Z,18.07
2019-04-19T23:48:31.472Z,27.97
2019-04-19T23:50:57.088Z,15.47
2019-04-19T23:53:32.915Z,18.07
2019-04-19T23:55:56.369Z,15.40
2019-04-19T23:58:29.541Z,18.97
